sensor_id;sensor_type;location;lat;lon;timestamp;P1;durP1;ratioP1;P2;durP2;ratioP2
2542;SDS011;1116;51.502;7.414;2023-11-22T00:00:10;7.77;;;6.97;;
2542;SDS011;1116;51.502;7.414;2023-11-22T00:02:41;7.30;;;6.60;;
2542;SDS011;1116;51.502;7.414;2023-11-22T00:05:11;9.03;;;7.97;;
2542;SDS011;1116;51.502;7.414;2023-11-22T00:07:44;9.50;;;6.63;;
2542;SDS011;1116;51.502;7.414;2023-11-22T00:10:14;9.37;;;7.70;;
2542;SDS011;1116;51.502;7.414;2023-11-22T00:12:47;9.10;;;7.77;;
2542;SDS011;1116;51.502;7.414;2023-11-22T00:15:17;11.20;;;7.67;;
2542;SDS011;1116;51.502;7.414;2023-11-22T00:17:47;8.50;;;7.37;;
2542;SDS011;1116;51.502;7.414;2023-11-22T00:20:17;11.83;;;8.47;;
2542;SDS011;1116;51.502;7.414;2023-11-22T00:22:47;10.33;;;8.90;;
2542;SDS011;1116;51.502;7.414;2023-11-22T00:25:17;9.20;;;7.50;;
2542;SDS011;1116;51.502;7.414;2023-11-22T00:27:50;9.07;;;8.17;;
2542;SDS011;1116;51.502;7.414;2023-11-22T00:30:20;9.07;;;7.70;;
2542;SDS011;1116;51.502;7.414;2023-11-22T00:32:50;9.60;;;8.20;;
2542;SDS011;1116;51.502;7.414;2023-11-22T00:35:20;12.43;;;7.90;;
2542;SDS011;1116;51.502;7.414;2023-11-22T00:37:49;9.90;;;8.87;;
2542;SDS011;1116;51.502;7.414;2023-11-22T00:40:19;10.70;;;7.90;;
2542;SDS011;1116;51.502;7.414;2023-11-22T00:42:52;9.90;;;8.40;;
2542;SDS011;1116;51.502;7.414;2023-11-22T00:45:22;11.57;;;10.37;;
2542;SDS011;1116;51.502;7.414;2023-11-22T00:47:52;11.37;;;8.73;;
2542;SDS011;1116;51.502;7.414;2023-11-22T00:50:22;9.13;;;7.63;;
2542;SDS011;1116;51.502;7.414;2023-11-22T00:52:52;12.20;;;9.30;;
2542;SDS011;1116;51.502;7.414;2023-11-22T00:55:22;10.40;;;8.87;;
2542;SDS011;1116;51.502;7.414;2023-11-22T00:57:56;11.20;;;8.93;;
2542;SDS011;1116;51.502;7.414;2023-11-22T01:00:31;9.97;;;8.43;;
2542;SDS011;1116;51.502;7.414;2023-11-22T01:03:00;10.53;;;8.33;;
2542;SDS011;1116;51.502;7.414;2023-11-22T01:05:31;10.20;;;8.30;;
2542;SDS011;1116;51.502;7.414;2023-11-22T01:08:01;9.53;;;8.10;;
2542;SDS011;1116;51.502;7.414;2023-11-22T01:10:32;13.00;;;8.40;;
2542;SDS011;1116;51.502;7.414;2023-11-22T01:13:04;10.97;;;8.13;;
2542;SDS011;1116;51.502;7.414;2023-11-22T01:15:34;11.40;;;8.47;;
2542;SDS011;1116;51.502;7.414;2023-11-22T01:18:04;10.87;;;8.93;;
2542;SDS011;1116;51.502;7.414;2023-11-22T01:20:36;9.50;;;8.47;;
2542;SDS011;1116;51.502;7.414;2023-11-22T01:23:07;10.60;;;8.70;;
2542;SDS011;1116;51.502;7.414;2023-11-22T01:25:37;8.93;;;7.77;;
2542;SDS011;1116;51.502;7.414;2023-11-22T01:28:09;9.33;;;8.30;;
2542;SDS011;1116;51.502;7.414;2023-11-22T01:30:41;12.67;;;8.57;;
2542;SDS011;1116;51.502;7.414;2023-11-22T01:33:12;10.67;;;9.40;;
2542;SDS011;1116;51.502;7.414;2023-11-22T01:35:42;11.57;;;9.17;;
2542;SDS011;1116;51.502;7.414;2023-11-22T01:38:12;14.13;;;8.47;;
2542;SDS011;1116;51.502;7.414;2023-11-22T01:40:45;10.23;;;8.30;;
2542;SDS011;1116;51.502;7.414;2023-11-22T01:43:19;11.00;;;9.20;;
2542;SDS011;1116;51.502;7.414;2023-11-22T01:45:50;10.23;;;7.67;;
2542;SDS011;1116;51.502;7.414;2023-11-22T01:48:21;9.57;;;8.37;;
2542;SDS011;1116;51.502;7.414;2023-11-22T01:50:51;11.63;;;8.33;;
2542;SDS011;1116;51.502;7.414;2023-11-22T01:53:21;9.83;;;8.83;;
2542;SDS011;1116;51.502;7.414;2023-11-22T01:55:53;9.57;;;8.47;;
2542;SDS011;1116;51.502;7.414;2023-11-22T01:58:26;11.37;;;9.40;;
2542;SDS011;1116;51.502;7.414;2023-11-22T02:00:59;10.83;;;8.97;;
2542;SDS011;1116;51.502;7.414;2023-11-22T02:03:29;10.37;;;9.27;;
2542;SDS011;1116;51.502;7.414;2023-11-22T02:05:59;12.17;;;9.47;;
2542;SDS011;1116;51.502;7.414;2023-11-22T02:08:29;9.87;;;8.47;;
2542;SDS011;1116;51.502;7.414;2023-11-22T02:11:02;21.40;;;9.13;;
2542;SDS011;1116;51.502;7.414;2023-11-22T02:13:36;11.00;;;9.23;;
2542;SDS011;1116;51.502;7.414;2023-11-22T02:16:05;11.07;;;8.80;;
2542;SDS011;1116;51.502;7.414;2023-11-22T02:18:38;11.20;;;8.13;;
2542;SDS011;1116;51.502;7.414;2023-11-22T02:21:08;8.70;;;7.80;;
2542;SDS011;1116;51.502;7.414;2023-11-22T02:23:44;8.30;;;7.27;;
2542;SDS011;1116;51.502;7.414;2023-11-22T02:26:14;10.00;;;8.30;;
2542;SDS011;1116;51.502;7.414;2023-11-22T02:28:45;9.30;;;7.50;;
2542;SDS011;1116;51.502;7.414;2023-11-22T02:31:15;8.83;;;7.50;;
2542;SDS011;1116;51.502;7.414;2023-11-22T02:33:45;9.87;;;8.27;;
2542;SDS011;1116;51.502;7.414;2023-11-22T02:36:19;9.63;;;7.23;;
2542;SDS011;1116;51.502;7.414;2023-11-22T02:38:51;9.90;;;7.73;;
2542;SDS011;1116;51.502;7.414;2023-11-22T02:41:21;13.67;;;12.27;;
2542;SDS011;1116;51.502;7.414;2023-11-22T02:43:51;16.60;;;15.00;;
2542;SDS011;1116;51.502;7.414;2023-11-22T02:46:21;23.30;;;21.00;;
2542;SDS011;1116;51.502;7.414;2023-11-22T02:48:52;27.77;;;22.77;;
2542;SDS011;1116;51.502;7.414;2023-11-22T02:51:23;28.13;;;25.23;;
2542;SDS011;1116;51.502;7.414;2023-11-22T02:53:55;36.60;;;32.93;;
2542;SDS011;1116;51.502;7.414;2023-11-22T02:56:25;38.67;;;34.70;;
2542;SDS011;1116;51.502;7.414;2023-11-22T02:58:55;33.10;;;29.90;;
2542;SDS011;1116;51.502;7.414;2023-11-22T03:01:25;34.03;;;30.83;;
2542;SDS011;1116;51.502;7.414;2023-11-22T03:03:55;22.80;;;20.50;;
2542;SDS011;1116;51.502;7.414;2023-11-22T03:06:38;20.47;;;18.30;;
2542;SDS011;1116;51.502;7.414;2023-11-22T03:09:11;20.63;;;18.63;;
2542;SDS011;1116;51.502;7.414;2023-11-22T03:11:41;18.17;;;15.10;;
2542;SDS011;1116;51.502;7.414;2023-11-22T03:14:11;17.77;;;15.97;;
2542;SDS011;1116;51.502;7.414;2023-11-22T03:16:42;16.03;;;14.33;;
2542;SDS011;1116;51.502;7.414;2023-11-22T03:19:12;13.13;;;11.53;;
2542;SDS011;1116;51.502;7.414;2023-11-22T03:21:42;10.83;;;9.37;;
2542;SDS011;1116;51.502;7.414;2023-11-22T03:24:14;9.37;;;8.30;;
2542;SDS011;1116;51.502;7.414;2023-11-22T03:26:44;10.73;;;8.00;;
2542;SDS011;1116;51.502;7.414;2023-11-22T03:29:15;8.83;;;6.70;;
2542;SDS011;1116;51.502;7.414;2023-11-22T03:31:45;6.67;;;5.93;;
2542;SDS011;1116;51.502;7.414;2023-11-22T03:34:15;8.23;;;6.37;;
2542;SDS011;1116;51.502;7.414;2023-11-22T03:36:45;9.03;;;6.87;;
2542;SDS011;1116;51.502;7.414;2023-11-22T03:39:18;8.47;;;6.33;;
2542;SDS011;1116;51.502;7.414;2023-11-22T03:41:49;7.40;;;5.53;;
2542;SDS011;1116;51.502;7.414;2023-11-22T03:44:19;7.90;;;6.17;;
2542;SDS011;1116;51.502;7.414;2023-11-22T03:46:49;7.40;;;5.33;;
2542;SDS011;1116;51.502;7.414;2023-11-22T03:49:19;6.90;;;5.60;;
2542;SDS011;1116;51.502;7.414;2023-11-22T03:51:49;8.17;;;6.13;;
2542;SDS011;1116;51.502;7.414;2023-11-22T03:54:21;6.73;;;5.43;;
2542;SDS011;1116;51.502;7.414;2023-11-22T03:56:51;9.20;;;6.00;;
2542;SDS011;1116;51.502;7.414;2023-11-22T03:59:21;7.63;;;5.57;;
2542;SDS011;1116;51.502;7.414;2023-11-22T04:01:51;7.47;;;6.07;;
2542;SDS011;1116;51.502;7.414;2023-11-22T04:04:21;6.00;;;5.40;;
2542;SDS011;1116;51.502;7.414;2023-11-22T04:06:51;6.30;;;5.10;;
2542;SDS011;1116;51.502;7.414;2023-11-22T04:09:24;7.20;;;5.53;;
2542;SDS011;1116;51.502;7.414;2023-11-22T04:11:55;6.77;;;5.13;;
2542;SDS011;1116;51.502;7.414;2023-11-22T04:14:25;7.13;;;5.43;;
2542;SDS011;1116;51.502;7.414;2023-11-22T04:16:56;7.57;;;5.90;;
2542;SDS011;1116;51.502;7.414;2023-11-22T04:19:27;7.80;;;5.93;;
2542;SDS011;1116;51.502;7.414;2023-11-22T04:21:57;7.57;;;6.13;;
2542;SDS011;1116;51.502;7.414;2023-11-22T04:24:29;8.30;;;5.87;;
2542;SDS011;1116;51.502;7.414;2023-11-22T04:26:59;11.03;;;6.13;;
2542;SDS011;1116;51.502;7.414;2023-11-22T04:29:29;7.37;;;5.30;;
2542;SDS011;1116;51.502;7.414;2023-11-22T04:31:57;6.33;;;5.03;;
2542;SDS011;1116;51.502;7.414;2023-11-22T04:34:27;7.43;;;5.60;;
2542;SDS011;1116;51.502;7.414;2023-11-22T04:36:56;7.47;;;5.70;;
2542;SDS011;1116;51.502;7.414;2023-11-22T04:39:26;7.63;;;5.80;;
2542;SDS011;1116;51.502;7.414;2023-11-22T04:41:59;9.33;;;6.00;;
2542;SDS011;1116;51.502;7.414;2023-11-22T04:44:29;6.27;;;5.47;;
2542;SDS011;1116;51.502;7.414;2023-11-22T04:46:58;8.07;;;5.83;;
2542;SDS011;1116;51.502;7.414;2023-11-22T04:49:28;7.33;;;5.67;;
2542;SDS011;1116;51.502;7.414;2023-11-22T04:51:58;10.77;;;5.60;;
2542;SDS011;1116;51.502;7.414;2023-11-22T04:54:31;8.47;;;6.00;;
2542;SDS011;1116;51.502;7.414;2023-11-22T04:57:01;7.53;;;5.40;;
2542;SDS011;1116;51.502;7.414;2023-11-22T04:59:31;6.77;;;5.30;;
2542;SDS011;1116;51.502;7.414;2023-11-22T05:02:01;6.70;;;5.87;;
2542;SDS011;1116;51.502;7.414;2023-11-22T05:04:31;7.47;;;6.27;;
2542;SDS011;1116;51.502;7.414;2023-11-22T05:07:00;6.78;;;5.38;;
2542;SDS011;1116;51.502;7.414;2023-11-22T05:09:33;9.20;;;5.97;;
2542;SDS011;1116;51.502;7.414;2023-11-22T05:12:03;8.40;;;6.00;;
2542;SDS011;1116;51.502;7.414;2023-11-22T05:14:33;7.40;;;6.07;;
2542;SDS011;1116;51.502;7.414;2023-11-22T05:17:03;7.77;;;5.80;;
2542;SDS011;1116;51.502;7.414;2023-11-22T05:19:34;9.50;;;5.63;;
2542;SDS011;1116;51.502;7.414;2023-11-22T05:22:03;8.87;;;6.33;;
2542;SDS011;1116;51.502;7.414;2023-11-22T05:24:36;8.70;;;6.10;;
2542;SDS011;1116;51.502;7.414;2023-11-22T05:27:08;7.90;;;5.80;;
2542;SDS011;1116;51.502;7.414;2023-11-22T05:29:40;8.65;;;6.25;;
2542;SDS011;1116;51.502;7.414;2023-11-22T05:32:20;10.40;;;6.07;;
2542;SDS011;1116;51.502;7.414;2023-11-22T05:34:50;7.45;;;5.57;;
2542;SDS011;1116;51.502;7.414;2023-11-22T05:37:20;6.20;;;5.57;;
2542;SDS011;1116;51.502;7.414;2023-11-22T05:39:54;7.00;;;5.97;;
2542;SDS011;1116;51.502;7.414;2023-11-22T05:42:25;9.00;;;6.20;;
2542;SDS011;1116;51.502;7.414;2023-11-22T05:44:57;7.73;;;5.97;;
2542;SDS011;1116;51.502;7.414;2023-11-22T05:47:27;8.10;;;6.00;;
2542;SDS011;1116;51.502;7.414;2023-11-22T05:49:57;8.70;;;6.43;;
2542;SDS011;1116;51.502;7.414;2023-11-22T05:52:27;7.53;;;6.10;;
2542;SDS011;1116;51.502;7.414;2023-11-22T05:55:00;7.53;;;6.17;;
2542;SDS011;1116;51.502;7.414;2023-11-22T05:57:30;7.53;;;5.93;;
2542;SDS011;1116;51.502;7.414;2023-11-22T06:00:00;6.70;;;5.93;;
2542;SDS011;1116;51.502;7.414;2023-11-22T06:02:30;15.67;;;5.40;;
2542;SDS011;1116;51.502;7.414;2023-11-22T06:05:00;7.60;;;6.50;;
2542;SDS011;1116;51.502;7.414;2023-11-22T06:07:30;9.43;;;6.30;;
2542;SDS011;1116;51.502;7.414;2023-11-22T06:10:03;7.27;;;5.90;;
2542;SDS011;1116;51.502;7.414;2023-11-22T06:12:34;8.77;;;5.50;;
2542;SDS011;1116;51.502;7.414;2023-11-22T06:15:04;7.93;;;5.63;;
2542;SDS011;1116;51.502;7.414;2023-11-22T06:17:35;10.43;;;6.18;;
2542;SDS011;1116;51.502;7.414;2023-11-22T06:20:07;10.93;;;5.45;;
2542;SDS011;1116;51.502;7.414;2023-11-22T06:22:38;11.67;;;6.27;;
2542;SDS011;1116;51.502;7.414;2023-11-22T06:25:11;9.50;;;6.53;;
2542;SDS011;1116;51.502;7.414;2023-11-22T06:27:42;11.27;;;6.13;;
2542;SDS011;1116;51.502;7.414;2023-11-22T06:30:12;7.77;;;6.13;;
2542;SDS011;1116;51.502;7.414;2023-11-22T06:32:42;10.27;;;6.17;;
2542;SDS011;1116;51.502;7.414;2023-11-22T06:35:12;11.93;;;6.40;;
2542;SDS011;1116;51.502;7.414;2023-11-22T06:37:42;14.80;;;5.70;;
2542;SDS011;1116;51.502;7.414;2023-11-22T06:40:15;7.57;;;6.70;;
2542;SDS011;1116;51.502;7.414;2023-11-22T06:42:47;6.88;;;5.65;;
2542;SDS011;1116;51.502;7.414;2023-11-22T06:45:21;9.57;;;6.50;;
2542;SDS011;1116;51.502;7.414;2023-11-22T06:47:51;7.22;;;6.22;;
2542;SDS011;1116;51.502;7.414;2023-11-22T06:50:21;6.80;;;6.05;;
2542;SDS011;1116;51.502;7.414;2023-11-22T06:52:53;9.25;;;5.82;;
2542;SDS011;1116;51.502;7.414;2023-11-22T06:55:28;8.33;;;6.30;;
2542;SDS011;1116;51.502;7.414;2023-11-22T06:57:59;7.03;;;5.97;;
2542;SDS011;1116;51.502;7.414;2023-11-22T07:00:29;10.27;;;6.57;;
2542;SDS011;1116;51.502;7.414;2023-11-22T07:02:59;9.38;;;6.78;;
2542;SDS011;1116;51.502;7.414;2023-11-22T07:05:29;9.30;;;6.10;;
2542;SDS011;1116;51.502;7.414;2023-11-22T07:07:59;6.70;;;5.67;;
2542;SDS011;1116;51.502;7.414;2023-11-22T07:10:32;7.30;;;5.90;;
2542;SDS011;1116;51.502;7.414;2023-11-22T07:13:02;10.02;;;6.20;;
2542;SDS011;1116;51.502;7.414;2023-11-22T07:15:32;10.48;;;6.32;;
2542;SDS011;1116;51.502;7.414;2023-11-22T07:18:02;7.25;;;6.38;;
2542;SDS011;1116;51.502;7.414;2023-11-22T07:20:32;8.68;;;6.40;;
2542;SDS011;1116;51.502;7.414;2023-11-22T07:23:02;11.07;;;6.28;;
2542;SDS011;1116;51.502;7.414;2023-11-22T07:25:35;10.15;;;6.70;;
2542;SDS011;1116;51.502;7.414;2023-11-22T07:28:04;9.33;;;6.43;;
2542;SDS011;1116;51.502;7.414;2023-11-22T07:30:35;7.72;;;6.60;;
2542;SDS011;1116;51.502;7.414;2023-11-22T07:33:07;6.93;;;5.97;;
2542;SDS011;1116;51.502;7.414;2023-11-22T07:35:38;8.57;;;5.88;;
2542;SDS011;1116;51.502;7.414;2023-11-22T07:38:08;8.18;;;5.95;;
2542;SDS011;1116;51.502;7.414;2023-11-22T07:40:40;9.88;;;6.60;;
2542;SDS011;1116;51.502;7.414;2023-11-22T07:43:11;10.90;;;7.32;;
2542;SDS011;1116;51.502;7.414;2023-11-22T07:45:41;9.73;;;7.00;;
2542;SDS011;1116;51.502;7.414;2023-11-22T07:48:11;8.55;;;6.63;;
2542;SDS011;1116;51.502;7.414;2023-11-22T07:50:41;15.95;;;7.40;;
2542;SDS011;1116;51.502;7.414;2023-11-22T07:53:13;9.90;;;7.25;;
2542;SDS011;1116;51.502;7.414;2023-11-22T07:55:47;9.05;;;6.70;;
2542;SDS011;1116;51.502;7.414;2023-11-22T07:58:18;9.50;;;6.40;;
2542;SDS011;1116;51.502;7.414;2023-11-22T08:00:48;11.53;;;8.10;;
2542;SDS011;1116;51.502;7.414;2023-11-22T08:03:18;13.75;;;7.20;;
2542;SDS011;1116;51.502;7.414;2023-11-22T08:05:52;10.90;;;7.87;;
2542;SDS011;1116;51.502;7.414;2023-11-22T08:08:22;14.37;;;8.33;;
2542;SDS011;1116;51.502;7.414;2023-11-22T08:10:56;16.00;;;7.22;;
2542;SDS011;1116;51.502;7.414;2023-11-22T08:13:26;12.77;;;8.03;;
2542;SDS011;1116;51.502;7.414;2023-11-22T08:15:56;16.63;;;8.40;;
2542;SDS011;1116;51.502;7.414;2023-11-22T08:18:26;11.53;;;7.97;;
2542;SDS011;1116;51.502;7.414;2023-11-22T08:20:56;12.05;;;9.00;;
2542;SDS011;1116;51.502;7.414;2023-11-22T08:23:26;13.83;;;9.37;;
2542;SDS011;1116;51.502;7.414;2023-11-22T08:26:01;10.83;;;8.40;;
2542;SDS011;1116;51.502;7.414;2023-11-22T08:28:34;12.70;;;9.07;;
2542;SDS011;1116;51.502;7.414;2023-11-22T08:31:04;13.10;;;7.67;;
2542;SDS011;1116;51.502;7.414;2023-11-22T08:33:36;8.18;;;6.35;;
2542;SDS011;1116;51.502;7.414;2023-11-22T08:36:07;8.30;;;6.30;;
2542;SDS011;1116;51.502;7.414;2023-11-22T08:38:38;9.43;;;7.43;;
2542;SDS011;1116;51.502;7.414;2023-11-22T08:41:12;8.20;;;6.47;;
2542;SDS011;1116;51.502;7.414;2023-11-22T08:43:43;6.77;;;5.80;;
2542;SDS011;1116;51.502;7.414;2023-11-22T08:46:14;6.10;;;5.50;;
2542;SDS011;1116;51.502;7.414;2023-11-22T08:48:44;7.60;;;6.20;;
2542;SDS011;1116;51.502;7.414;2023-11-22T08:51:14;9.87;;;5.90;;
2542;SDS011;1116;51.502;7.414;2023-11-22T08:53:47;7.77;;;6.50;;
2542;SDS011;1116;51.502;7.414;2023-11-22T08:56:20;11.33;;;6.77;;
2542;SDS011;1116;51.502;7.414;2023-11-22T08:58:51;7.20;;;6.00;;
2542;SDS011;1116;51.502;7.414;2023-11-22T09:01:21;9.57;;;6.37;;
2542;SDS011;1116;51.502;7.414;2023-11-22T09:03:52;10.90;;;7.53;;
2542;SDS011;1116;51.502;7.414;2023-11-22T09:06:23;9.03;;;7.53;;
2542;SDS011;1116;51.502;7.414;2023-11-22T09:08:56;13.53;;;7.53;;
2542;SDS011;1116;51.502;7.414;2023-11-22T09:11:28;11.10;;;7.20;;
2542;SDS011;1116;51.502;7.414;2023-11-22T09:14:01;10.50;;;6.80;;
2542;SDS011;1116;51.502;7.414;2023-11-22T09:16:34;12.77;;;8.33;;
2542;SDS011;1116;51.502;7.414;2023-11-22T09:19:05;11.20;;;8.40;;
2542;SDS011;1116;51.502;7.414;2023-11-22T09:21:35;8.93;;;5.43;;
2542;SDS011;1116;51.502;7.414;2023-11-22T09:24:05;8.00;;;5.60;;
2542;SDS011;1116;51.502;7.414;2023-11-22T09:26:39;4.40;;;4.00;;
2542;SDS011;1116;51.502;7.414;2023-11-22T09:29:10;6.30;;;4.60;;
2542;SDS011;1116;51.502;7.414;2023-11-22T09:31:40;6.77;;;5.40;;
2542;SDS011;1116;51.502;7.414;2023-11-22T09:34:12;6.80;;;5.10;;
2542;SDS011;1116;51.502;7.414;2023-11-22T09:36:42;6.53;;;5.00;;
2542;SDS011;1116;51.502;7.414;2023-11-22T09:39:13;6.63;;;5.13;;
2542;SDS011;1116;51.502;7.414;2023-11-22T09:41:50;7.77;;;5.73;;
2542;SDS011;1116;51.502;7.414;2023-11-22T09:44:20;6.40;;;5.00;;
2542;SDS011;1116;51.502;7.414;2023-11-22T09:46:51;5.80;;;4.20;;
2542;SDS011;1116;51.502;7.414;2023-11-22T09:49:23;5.97;;;4.70;;
2542;SDS011;1116;51.502;7.414;2023-11-22T09:51:54;6.27;;;4.10;;
2542;SDS011;1116;51.502;7.414;2023-11-22T09:54:27;4.83;;;4.10;;
2542;SDS011;1116;51.502;7.414;2023-11-22T09:57:02;6.53;;;4.23;;
2542;SDS011;1116;51.502;7.414;2023-11-22T09:59:35;6.17;;;4.70;;
2542;SDS011;1116;51.502;7.414;2023-11-22T10:02:09;4.83;;;3.90;;
2542;SDS011;1116;51.502;7.414;2023-11-22T10:04:39;7.30;;;4.23;;
2542;SDS011;1116;51.502;7.414;2023-11-22T10:07:09;5.30;;;4.10;;
2542;SDS011;1116;51.502;7.414;2023-11-22T10:09:40;5.77;;;4.27;;
2542;SDS011;1116;51.502;7.414;2023-11-22T10:12:14;5.63;;;4.20;;
2542;SDS011;1116;51.502;7.414;2023-11-22T10:14:48;3.90;;;3.23;;
2542;SDS011;1116;51.502;7.414;2023-11-22T10:17:19;4.50;;;4.10;;
2542;SDS011;1116;51.502;7.414;2023-11-22T10:19:51;6.10;;;4.50;;
2542;SDS011;1116;51.502;7.414;2023-11-22T10:22:22;7.17;;;4.53;;
2542;SDS011;1116;51.502;7.414;2023-11-22T10:24:51;4.77;;;3.60;;
2542;SDS011;1116;51.502;7.414;2023-11-22T10:27:28;7.07;;;4.13;;
2542;SDS011;1116;51.502;7.414;2023-11-22T10:29:56;5.40;;;4.23;;
2542;SDS011;1116;51.502;7.414;2023-11-22T10:32:25;5.87;;;4.17;;
2542;SDS011;1116;51.502;7.414;2023-11-22T10:34:55;5.33;;;4.33;;
2542;SDS011;1116;51.502;7.414;2023-11-22T10:37:25;4.30;;;3.90;;
2542;SDS011;1116;51.502;7.414;2023-11-22T10:39:55;6.33;;;3.63;;
2542;SDS011;1116;51.502;7.414;2023-11-22T10:42:28;6.27;;;4.10;;
2542;SDS011;1116;51.502;7.414;2023-11-22T10:44:58;6.23;;;3.83;;
2542;SDS011;1116;51.502;7.414;2023-11-22T10:47:30;4.83;;;3.90;;
2542;SDS011;1116;51.502;7.414;2023-11-22T10:50:04;4.87;;;3.93;;
2542;SDS011;1116;51.502;7.414;2023-11-22T10:52:37;5.70;;;4.10;;
2542;SDS011;1116;51.502;7.414;2023-11-22T10:55:11;4.03;;;3.33;;
2542;SDS011;1116;51.502;7.414;2023-11-22T10:57:47;5.63;;;4.20;;
2542;SDS011;1116;51.502;7.414;2023-11-22T11:00:22;7.90;;;4.57;;
2542;SDS011;1116;51.502;7.414;2023-11-22T11:02:57;7.50;;;3.90;;
2542;SDS011;1116;51.502;7.414;2023-11-22T11:05:30;5.80;;;4.60;;
2542;SDS011;1116;51.502;7.414;2023-11-22T11:08:01;5.60;;;4.10;;
2542;SDS011;1116;51.502;7.414;2023-11-22T11:10:38;5.03;;;3.90;;
2542;SDS011;1116;51.502;7.414;2023-11-22T11:13:11;7.30;;;5.90;;
2542;SDS011;1116;51.502;7.414;2023-11-22T11:15:42;4.83;;;3.70;;
2542;SDS011;1116;51.502;7.414;2023-11-22T11:18:14;4.83;;;3.63;;
2542;SDS011;1116;51.502;7.414;2023-11-22T11:20:48;4.03;;;3.33;;
2542;SDS011;1116;51.502;7.414;2023-11-22T11:23:20;6.23;;;3.40;;
2542;SDS011;1116;51.502;7.414;2023-11-22T11:25:52;4.00;;;3.60;;
2542;SDS011;1116;51.502;7.414;2023-11-22T11:28:26;7.67;;;3.57;;
2542;SDS011;1116;51.502;7.414;2023-11-22T11:31:12;3.83;;;3.30;;
2542;SDS011;1116;51.502;7.414;2023-11-22T11:33:54;3.47;;;3.00;;
2542;SDS011;1116;51.502;7.414;2023-11-22T11:36:26;2.70;;;2.50;;
2542;SDS011;1116;51.502;7.414;2023-11-22T11:38:59;3.13;;;2.83;;
2542;SDS011;1116;51.502;7.414;2023-11-22T11:41:30;3.13;;;2.17;;
2542;SDS011;1116;51.502;7.414;2023-11-22T11:44:06;2.50;;;2.20;;
2542;SDS011;1116;51.502;7.414;2023-11-22T11:46:38;2.47;;;1.80;;
2542;SDS011;1116;51.502;7.414;2023-11-22T11:49:09;2.77;;;2.37;;
2542;SDS011;1116;51.502;7.414;2023-11-22T11:51:41;4.83;;;2.33;;
2542;SDS011;1116;51.502;7.414;2023-11-22T11:54:12;3.80;;;2.57;;
2542;SDS011;1116;51.502;7.414;2023-11-22T11:56:44;2.60;;;2.23;;
2542;SDS011;1116;51.502;7.414;2023-11-22T11:59:20;6.83;;;3.20;;
2542;SDS011;1116;51.502;7.414;2023-11-22T12:01:52;3.73;;;2.63;;
2542;SDS011;1116;51.502;7.414;2023-11-22T12:04:24;3.40;;;2.77;;
2542;SDS011;1116;51.502;7.414;2023-11-22T12:06:54;3.20;;;2.77;;
2542;SDS011;1116;51.502;7.414;2023-11-22T12:09:27;3.20;;;2.63;;
2542;SDS011;1116;51.502;7.414;2023-11-22T12:11:59;3.77;;;3.00;;
2542;SDS011;1116;51.502;7.414;2023-11-22T12:14:33;4.87;;;3.10;;
2542;SDS011;1116;51.502;7.414;2023-11-22T12:17:03;5.70;;;3.17;;
2542;SDS011;1116;51.502;7.414;2023-11-22T12:19:34;3.70;;;3.30;;
2542;SDS011;1116;51.502;7.414;2023-11-22T12:22:04;3.60;;;2.83;;
2542;SDS011;1116;51.502;7.414;2023-11-22T12:24:35;4.40;;;3.10;;
2542;SDS011;1116;51.502;7.414;2023-11-22T12:27:05;3.60;;;3.03;;
2542;SDS011;1116;51.502;7.414;2023-11-22T12:29:39;4.30;;;2.80;;
2542;SDS011;1116;51.502;7.414;2023-11-22T12:32:12;3.40;;;2.63;;
2542;SDS011;1116;51.502;7.414;2023-11-22T12:34:44;2.63;;;2.43;;
2542;SDS011;1116;51.502;7.414;2023-11-22T12:37:14;2.57;;;2.37;;
2542;SDS011;1116;51.502;7.414;2023-11-22T12:39:48;2.60;;;2.40;;
2542;SDS011;1116;51.502;7.414;2023-11-22T12:42:19;6.30;;;3.07;;
2542;SDS011;1116;51.502;7.414;2023-11-22T12:44:53;3.80;;;2.90;;
2542;SDS011;1116;51.502;7.414;2023-11-22T12:47:32;3.63;;;3.23;;
2542;SDS011;1116;51.502;7.414;2023-11-22T12:50:05;3.20;;;2.43;;
2542;SDS011;1116;51.502;7.414;2023-11-22T12:52:42;4.70;;;3.10;;
2542;SDS011;1116;51.502;7.414;2023-11-22T12:55:12;6.23;;;4.30;;
2542;SDS011;1116;51.502;7.414;2023-11-22T12:57:42;4.47;;;3.20;;
2542;SDS011;1116;51.502;7.414;2023-11-22T13:00:16;4.30;;;3.00;;
2542;SDS011;1116;51.502;7.414;2023-11-22T13:02:47;4.30;;;2.80;;
2542;SDS011;1116;51.502;7.414;2023-11-22T13:05:29;3.10;;;2.53;;
2542;SDS011;1116;51.502;7.414;2023-11-22T13:07:59;3.23;;;2.33;;
2542;SDS011;1116;51.502;7.414;2023-11-22T13:10:30;2.40;;;2.20;;
2542;SDS011;1116;51.502;7.414;2023-11-22T13:13:00;2.90;;;2.10;;
2542;SDS011;1116;51.502;7.414;2023-11-22T13:15:32;2.47;;;1.83;;
2542;SDS011;1116;51.502;7.414;2023-11-22T13:18:03;2.50;;;2.03;;
2542;SDS011;1116;51.502;7.414;2023-11-22T13:20:35;2.97;;;2.00;;
2542;SDS011;1116;51.502;7.414;2023-11-22T13:23:07;3.80;;;2.00;;
2542;SDS011;1116;51.502;7.414;2023-11-22T13:25:38;4.13;;;1.80;;
2542;SDS011;1116;51.502;7.414;2023-11-22T13:28:08;2.40;;;2.00;;
2542;SDS011;1116;51.502;7.414;2023-11-22T13:30:42;5.27;;;2.30;;
2542;SDS011;1116;51.502;7.414;2023-11-22T13:33:18;2.93;;;2.17;;
2542;SDS011;1116;51.502;7.414;2023-11-22T13:35:48;2.63;;;2.43;;
2542;SDS011;1116;51.502;7.414;2023-11-22T13:38:18;3.43;;;2.77;;
2542;SDS011;1116;51.502;7.414;2023-11-22T13:40:50;4.53;;;2.77;;
2542;SDS011;1116;51.502;7.414;2023-11-22T13:43:20;4.47;;;2.87;;
2542;SDS011;1116;51.502;7.414;2023-11-22T13:45:55;3.43;;;2.40;;
2542;SDS011;1116;51.502;7.414;2023-11-22T13:48:25;6.90;;;2.93;;
2542;SDS011;1116;51.502;7.414;2023-11-22T13:50:55;4.80;;;3.43;;
2542;SDS011;1116;51.502;7.414;2023-11-22T13:53:26;5.23;;;2.80;;
2542;SDS011;1116;51.502;7.414;2023-11-22T13:56:00;3.43;;;2.90;;
2542;SDS011;1116;51.502;7.414;2023-11-22T13:58:34;4.50;;;3.03;;
2542;SDS011;1116;51.502;7.414;2023-11-22T14:01:07;3.73;;;3.13;;
2542;SDS011;1116;51.502;7.414;2023-11-22T14:03:43;5.93;;;2.97;;
2542;SDS011;1116;51.502;7.414;2023-11-22T14:06:13;3.47;;;2.90;;
2542;SDS011;1116;51.502;7.414;2023-11-22T14:08:43;4.30;;;3.30;;
2542;SDS011;1116;51.502;7.414;2023-11-22T14:11:13;4.83;;;3.37;;
2542;SDS011;1116;51.502;7.414;2023-11-22T14:13:43;4.10;;;3.27;;
2542;SDS011;1116;51.502;7.414;2023-11-22T14:16:16;7.70;;;3.00;;
2542;SDS011;1116;51.502;7.414;2023-11-22T14:18:46;4.93;;;3.43;;
2542;SDS011;1116;51.502;7.414;2023-11-22T14:21:16;7.30;;;3.80;;
2542;SDS011;1116;51.502;7.414;2023-11-22T14:23:46;3.77;;;3.20;;
2542;SDS011;1116;51.502;7.414;2023-11-22T14:26:21;4.93;;;3.93;;
2542;SDS011;1116;51.502;7.414;2023-11-22T14:28:52;5.30;;;4.20;;
2542;SDS011;1116;51.502;7.414;2023-11-22T14:31:28;6.57;;;5.60;;
2542;SDS011;1116;51.502;7.414;2023-11-22T14:34:00;10.83;;;7.40;;
2542;SDS011;1116;51.502;7.414;2023-11-22T14:36:43;8.50;;;6.43;;
2542;SDS011;1116;51.502;7.414;2023-11-22T14:39:22;8.23;;;6.53;;
2542;SDS011;1116;51.502;7.414;2023-11-22T14:42:41;5.70;;;4.00;;
2542;SDS011;1116;51.502;7.414;2023-11-22T14:45:22;4.23;;;3.83;;
2542;SDS011;1116;51.502;7.414;2023-11-22T14:55:16;5.07;;;4.17;;
2542;SDS011;1116;51.502;7.414;2023-11-22T14:57:47;6.73;;;4.87;;
2542;SDS011;1116;51.502;7.414;2023-11-22T15:00:17;5.20;;;3.70;;
2542;SDS011;1116;51.502;7.414;2023-11-22T15:02:47;6.50;;;3.50;;
2542;SDS011;1116;51.502;7.414;2023-11-22T15:05:20;7.23;;;3.27;;
2542;SDS011;1116;51.502;7.414;2023-11-22T15:07:55;6.03;;;3.60;;
2542;SDS011;1116;51.502;7.414;2023-11-22T15:10:26;6.10;;;2.97;;
2542;SDS011;1116;51.502;7.414;2023-11-22T15:12:56;3.80;;;2.90;;
2542;SDS011;1116;51.502;7.414;2023-11-22T15:15:26;3.53;;;2.70;;
2542;SDS011;1116;51.502;7.414;2023-11-22T15:17:56;3.83;;;2.80;;
2542;SDS011;1116;51.502;7.414;2023-11-22T15:20:26;4.63;;;3.23;;
2542;SDS011;1116;51.502;7.414;2023-11-22T15:22:58;3.80;;;3.37;;
2542;SDS011;1116;51.502;7.414;2023-11-22T15:25:29;7.80;;;4.50;;
2542;SDS011;1116;51.502;7.414;2023-11-22T15:28:00;3.80;;;2.93;;
2542;SDS011;1116;51.502;7.414;2023-11-22T15:30:31;4.67;;;3.60;;
2542;SDS011;1116;51.502;7.414;2023-11-22T15:33:01;5.30;;;3.10;;
2542;SDS011;1116;51.502;7.414;2023-11-22T15:35:31;3.33;;;3.03;;
2542;SDS011;1116;51.502;7.414;2023-11-22T15:38:04;5.80;;;4.00;;
2542;SDS011;1116;51.502;7.414;2023-11-22T15:40:34;6.80;;;4.40;;
2542;SDS011;1116;51.502;7.414;2023-11-22T15:43:05;3.80;;;3.30;;
2542;SDS011;1116;51.502;7.414;2023-11-22T15:45:35;4.13;;;3.30;;